sensor_id;sensor_type;location;lat;lon;timestamp;pressure;altitude;pressure_sealevel;temperature;humidity
75172;BME280;63750;52.418;20.742;2023-08-06T00:00:14;99613.02;;;23.45;68.30
75172;BME280;63750;52.418;20.742;2023-08-06T00:03:02;99611.07;;;23.68;68.18
75172;BME280;63750;52.418;20.742;2023-08-06T00:05:51;99612.42;;;23.87;68.03
75172;BME280;63750;52.418;20.742;2023-08-06T00:08:40;99621.27;;;24.02;66.95
75172;BME280;63750;52.418;20.742;2023-08-06T00:11:29;99624.73;;;24.07;66.39
75172;BME280;63750;52.418;20.742;2023-08-06T00:14:17;99630.92;;;23.95;65.97
75172;BME280;63750;52.418;20.742;2023-08-06T00:17:06;99638.20;;;23.73;66.61
75172;BME280;63750;52.418;20.742;2023-08-06T00:19:55;99637.73;;;23.61;67.23
75172;BME280;63750;52.418;20.742;2023-08-06T00:22:44;99643.70;;;23.59;67.48
75172;BME280;63750;52.418;20.742;2023-08-06T00:25:33;99641.63;;;23.56;67.33
75172;BME280;63750;52.418;20.742;2023-08-06T00:28:22;99642.80;;;23.48;67.54
75172;BME280;63750;52.418;20.742;2023-08-06T00:31:10;99632.73;;;23.51;68.09
75172;BME280;63750;52.418;20.742;2023-08-06T00:33:59;99622.13;;;23.70;67.71
75172;BME280;63750;52.418;20.742;2023-08-06T00:36:48;99601.69;;;23.82;67.04
75172;BME280;63750;52.418;20.742;2023-08-06T00:39:37;99600.79;;;23.88;66.82
75172;BME280;63750;52.418;20.742;2023-08-06T00:42:26;99604.16;;;23.95;66.77
75172;BME280;63750;52.418;20.742;2023-08-06T00:45:14;99593.85;;;24.03;66.61
75172;BME280;63750;52.418;20.742;2023-08-06T00:48:04;99582.02;;;24.10;66.35
75172;BME280;63750;52.418;20.742;2023-08-06T00:50:55;99560.52;;;24.22;65.89
75172;BME280;63750;52.418;20.742;2023-08-06T00:53:46;99540.69;;;24.32;65.28
75172;BME280;63750;52.418;20.742;2023-08-06T00:56:35;99525.55;;;24.41;64.95
75172;BME280;63750;52.418;20.742;2023-08-06T00:59:29;99510.98;;;24.46;64.57
75172;BME280;63750;52.418;20.742;2023-08-06T01:02:21;99495.20;;;24.50;64.54
75172;BME280;63750;52.418;20.742;2023-08-06T01:05:10;99466.13;;;24.59;64.41
75172;BME280;63750;52.418;20.742;2023-08-06T01:08:10;99442.35;;;24.66;63.95
75172;BME280;63750;52.418;20.742;2023-08-06T01:11:08;99438.48;;;24.66;63.80
75172;BME280;63750;52.418;20.742;2023-08-06T01:14:06;99430.02;;;24.66;63.72
75172;BME280;63750;52.418;20.742;2023-08-06T01:16:57;99414.59;;;24.70;63.65
75172;BME280;63750;52.418;20.742;2023-08-06T01:19:47;99410.10;;;24.75;63.27
75172;BME280;63750;52.418;20.742;2023-08-06T01:22:35;99403.88;;;24.78;63.24
75172;BME280;63750;52.418;20.742;2023-08-06T01:25:28;99392.64;;;24.80;63.11
75172;BME280;63750;52.418;20.742;2023-08-06T01:28:23;99378.85;;;24.81;62.97
75172;BME280;63750;52.418;20.742;2023-08-06T01:31:18;99363.92;;;24.83;62.66
75172;BME280;63750;52.418;20.742;2023-08-06T01:34:16;99350.84;;;24.84;62.59
75172;BME280;63750;52.418;20.742;2023-08-06T01:37:06;99342.40;;;24.82;62.43
75172;BME280;63750;52.418;20.742;2023-08-06T01:39:55;99343.53;;;24.82;62.43
75172;BME280;63750;52.418;20.742;2023-08-06T01:42:44;99342.11;;;24.81;62.60
75172;BME280;63750;52.418;20.742;2023-08-06T01:45:33;99330.32;;;24.82;62.36
75172;BME280;63750;52.418;20.742;2023-08-06T01:48:22;99329.08;;;24.82;62.46
75172;BME280;63750;52.418;20.742;2023-08-06T01:51:10;99326.48;;;24.83;62.33
75172;BME280;63750;52.418;20.742;2023-08-06T01:53:59;99325.39;;;24.83;62.27
75172;BME280;63750;52.418;20.742;2023-08-06T01:56:48;99332.06;;;24.82;62.20
75172;BME280;63750;52.418;20.742;2023-08-06T01:59:37;99331.79;;;24.82;62.17
75172;BME280;63750;52.418;20.742;2023-08-06T02:02:26;99336.47;;;24.82;62.24
75172;BME280;63750;52.418;20.742;2023-08-06T02:05:15;99332.34;;;24.82;61.95
75172;BME280;63750;52.418;20.742;2023-08-06T02:08:04;99322.63;;;24.79;62.29
75172;BME280;63750;52.418;20.742;2023-08-06T02:10:53;99321.34;;;24.81;62.21
75172;BME280;63750;52.418;20.742;2023-08-06T02:13:41;99314.60;;;24.81;62.35
75172;BME280;63750;52.418;20.742;2023-08-06T02:16:30;99304.86;;;24.79;62.19
75172;BME280;63750;52.418;20.742;2023-08-06T02:19:19;99306.66;;;24.80;62.46
75172;BME280;63750;52.418;20.742;2023-08-06T02:22:08;99299.12;;;24.81;62.40
75172;BME280;63750;52.418;20.742;2023-08-06T02:24:57;99288.05;;;24.82;62.39
75172;BME280;63750;52.418;20.742;2023-08-06T02:27:45;99288.35;;;24.80;62.62
75172;BME280;63750;52.418;20.742;2023-08-06T02:30:34;99290.54;;;24.81;62.39
75172;BME280;63750;52.418;20.742;2023-08-06T02:33:23;99280.48;;;24.82;62.50
75172;BME280;63750;52.418;20.742;2023-08-06T02:36:12;99275.48;;;24.86;62.47
75172;BME280;63750;52.418;20.742;2023-08-06T02:39:01;99271.15;;;24.88;62.36
75172;BME280;63750;52.418;20.742;2023-08-06T02:41:50;99278.17;;;24.88;62.43
75172;BME280;63750;52.418;20.742;2023-08-06T02:44:38;99283.45;;;24.85;62.58
75172;BME280;63750;52.418;20.742;2023-08-06T02:47:27;99281.49;;;24.85;62.53
75172;BME280;63750;52.418;20.742;2023-08-06T02:50:16;99280.02;;;24.84;62.61
75172;BME280;63750;52.418;20.742;2023-08-06T02:53:05;99270.42;;;24.86;62.44
75172;BME280;63750;52.418;20.742;2023-08-06T02:55:54;99265.76;;;24.87;62.41
75172;BME280;63750;52.418;20.742;2023-08-06T02:58:43;99262.27;;;24.86;62.36
75172;BME280;63750;52.418;20.742;2023-08-06T03:01:31;99256.98;;;24.80;62.65
75172;BME280;63750;52.418;20.742;2023-08-06T03:04:20;99247.03;;;24.79;62.56
75172;BME280;63750;52.418;20.742;2023-08-06T03:07:09;99235.85;;;24.81;62.70
75172;BME280;63750;52.418;20.742;2023-08-06T03:09:58;99226.45;;;24.82;62.51
75172;BME280;63750;52.418;20.742;2023-08-06T03:12:47;99220.96;;;24.81;62.55
75172;BME280;63750;52.418;20.742;2023-08-06T03:15:36;99221.21;;;24.78;62.67
75172;BME280;63750;52.418;20.742;2023-08-06T03:18:25;99222.71;;;24.75;62.77
75172;BME280;63750;52.418;20.742;2023-08-06T03:21:14;99225.04;;;24.74;62.81
75172;BME280;63750;52.418;20.742;2023-08-06T03:24:02;99227.01;;;24.75;62.74
75172;BME280;63750;52.418;20.742;2023-08-06T03:26:51;99226.27;;;24.77;62.69
75172;BME280;63750;52.418;20.742;2023-08-06T03:29:40;99217.52;;;24.77;62.74
75172;BME280;63750;52.418;20.742;2023-08-06T03:32:29;99200.27;;;24.76;62.83
75172;BME280;63750;52.418;20.742;2023-08-06T03:35:18;99199.97;;;24.73;62.99
75172;BME280;63750;52.418;20.742;2023-08-06T03:38:06;99196.09;;;24.70;63.11
75172;BME280;63750;52.418;20.742;2023-08-06T03:40:55;99190.15;;;24.74;63.05
75172;BME280;63750;52.418;20.742;2023-08-06T03:43:44;99182.41;;;24.79;62.91
75172;BME280;63750;52.418;20.742;2023-08-06T03:46:33;99167.39;;;24.82;63.05
75172;BME280;63750;52.418;20.742;2023-08-06T03:49:21;99153.83;;;24.85;62.83
75172;BME280;63750;52.418;20.742;2023-08-06T03:52:10;99144.67;;;24.88;62.84
75172;BME280;63750;52.418;20.742;2023-08-06T03:54:59;99139.36;;;24.90;62.84
75172;BME280;63750;52.418;20.742;2023-08-06T03:57:48;99132.17;;;24.93;62.75
75172;BME280;63750;52.418;20.742;2023-08-06T04:00:37;99128.09;;;24.94;62.87
75172;BME280;63750;52.418;20.742;2023-08-06T04:03:25;99119.11;;;24.93;62.85
75172;BME280;63750;52.418;20.742;2023-08-06T04:06:14;99114.96;;;24.97;62.82
75172;BME280;63750;52.418;20.742;2023-08-06T04:09:03;99104.11;;;24.99;62.73
75172;BME280;63750;52.418;20.742;2023-08-06T04:11:52;99093.02;;;24.99;62.72
75172;BME280;63750;52.418;20.742;2023-08-06T04:14:41;99087.95;;;24.98;62.78
75172;BME280;63750;52.418;20.742;2023-08-06T04:17:29;99081.31;;;24.97;62.83
75172;BME280;63750;52.418;20.742;2023-08-06T04:20:18;99069.91;;;24.98;62.95
75172;BME280;63750;52.418;20.742;2023-08-06T04:23:08;99068.02;;;24.99;62.92
75172;BME280;63750;52.418;20.742;2023-08-06T04:25:58;99070.13;;;24.99;62.93
75172;BME280;63750;52.418;20.742;2023-08-06T04:28:47;99077.15;;;25.00;63.01
75172;BME280;63750;52.418;20.742;2023-08-06T04:31:36;99075.63;;;24.92;63.22
75172;BME280;63750;52.418;20.742;2023-08-06T04:34:25;99077.79;;;24.90;63.50
75172;BME280;63750;52.418;20.742;2023-08-06T04:37:13;99074.46;;;24.90;63.52
75172;BME280;63750;52.418;20.742;2023-08-06T04:40:02;99075.55;;;24.95;63.49
75172;BME280;63750;52.418;20.742;2023-08-06T04:42:51;99067.89;;;24.98;63.49
75172;BME280;63750;52.418;20.742;2023-08-06T04:45:47;99071.47;;;24.97;63.60
75172;BME280;63750;52.418;20.742;2023-08-06T04:48:35;99064.16;;;24.94;63.76
75172;BME280;63750;52.418;20.742;2023-08-06T04:51:24;99057.70;;;24.94;63.83
75172;BME280;63750;52.418;20.742;2023-08-06T04:54:13;99055.18;;;25.00;63.62
75172;BME280;63750;52.418;20.742;2023-08-06T04:57:02;99057.54;;;25.01;63.60
75172;BME280;63750;52.418;20.742;2023-08-06T04:59:51;99055.16;;;25.04;63.65
75172;BME280;63750;52.418;20.742;2023-08-06T05:02:40;99053.27;;;25.05;63.69
75172;BME280;63750;52.418;20.742;2023-08-06T05:05:28;99043.77;;;25.06;63.68
75172;BME280;63750;52.418;20.742;2023-08-06T05:08:17;99037.64;;;25.11;63.50
75172;BME280;63750;52.418;20.742;2023-08-06T05:11:06;99029.77;;;25.15;63.43
75172;BME280;63750;52.418;20.742;2023-08-06T05:13:55;99028.42;;;25.17;63.46
75172;BME280;63750;52.418;20.742;2023-08-06T05:16:43;99029.81;;;25.13;63.59
75172;BME280;63750;52.418;20.742;2023-08-06T05:19:32;99024.09;;;25.10;63.95
75172;BME280;63750;52.418;20.742;2023-08-06T05:22:21;99027.13;;;25.09;63.94
75172;BME280;63750;52.418;20.742;2023-08-06T05:25:12;99022.41;;;25.11;63.98
75172;BME280;63750;52.418;20.742;2023-08-06T05:28:01;99017.86;;;25.15;63.77
75172;BME280;63750;52.418;20.742;2023-08-06T05:30:50;99011.75;;;25.23;63.58
75172;BME280;63750;52.418;20.742;2023-08-06T05:33:39;99008.24;;;25.29;63.49
75172;BME280;63750;52.418;20.742;2023-08-06T05:36:27;99000.92;;;25.34;63.40
75172;BME280;63750;52.418;20.742;2023-08-06T05:39:16;98993.41;;;25.33;63.39
75172;BME280;63750;52.418;20.742;2023-08-06T05:42:06;98988.22;;;25.36;63.45
75172;BME280;63750;52.418;20.742;2023-08-06T05:44:55;98988.22;;;25.43;63.46
75172;BME280;63750;52.418;20.742;2023-08-06T05:47:44;98986.50;;;25.47;63.31
75172;BME280;63750;52.418;20.742;2023-08-06T05:50:32;98980.32;;;25.58;63.11
75172;BME280;63750;52.418;20.742;2023-08-06T05:53:21;98967.54;;;25.58;63.35
75172;BME280;63750;52.418;20.742;2023-08-06T05:56:10;98959.23;;;25.47;63.68
75172;BME280;63750;52.418;20.742;2023-08-06T05:58:59;98949.21;;;25.41;64.06
75172;BME280;63750;52.418;20.742;2023-08-06T06:01:48;98942.28;;;25.52;63.77
75172;BME280;63750;52.418;20.742;2023-08-06T06:04:36;98934.11;;;25.67;63.38
75172;BME280;63750;52.418;20.742;2023-08-06T06:07:25;98926.41;;;25.80;63.07
75172;BME280;63750;52.418;20.742;2023-08-06T06:10:14;98927.39;;;25.90;62.95
75172;BME280;63750;52.418;20.742;2023-08-06T06:13:03;98928.16;;;25.90;62.86
75172;BME280;63750;52.418;20.742;2023-08-06T06:15:55;98924.45;;;25.92;62.92
75172;BME280;63750;52.418;20.742;2023-08-06T06:18:44;98920.53;;;25.77;63.36
75172;BME280;63750;52.418;20.742;2023-08-06T06:21:33;98914.92;;;25.80;63.46
75172;BME280;63750;52.418;20.742;2023-08-06T06:24:21;98913.45;;;25.91;63.07
75172;BME280;63750;52.418;20.742;2023-08-06T06:27:10;98909.96;;;25.88;63.17
75172;BME280;63750;52.418;20.742;2023-08-06T06:29:59;98911.38;;;25.99;62.66
75172;BME280;63750;52.418;20.742;2023-08-06T06:32:48;98907.77;;;25.93;62.30
75172;BME280;63750;52.418;20.742;2023-08-06T06:35:37;98905.67;;;25.88;62.69
75172;BME280;63750;52.418;20.742;2023-08-06T06:38:25;98904.47;;;25.80;62.43
75172;BME280;63750;52.418;20.742;2023-08-06T06:41:14;98904.79;;;25.76;62.52
75172;BME280;63750;52.418;20.742;2023-08-06T06:44:03;98905.07;;;25.78;62.75
75172;BME280;63750;52.418;20.742;2023-08-06T06:46:52;98904.30;;;25.77;62.46
75172;BME280;63750;52.418;20.742;2023-08-06T06:49:41;98900.70;;;25.72;62.46
75172;BME280;63750;52.418;20.742;2023-08-06T06:52:30;98894.40;;;25.67;62.36
75172;BME280;63750;52.418;20.742;2023-08-06T06:55:19;98893.13;;;25.70;62.50
75172;BME280;63750;52.418;20.742;2023-08-06T06:58:08;98886.72;;;25.76;62.28
75172;BME280;63750;52.418;20.742;2023-08-06T07:00:56;98891.85;;;25.79;62.45
75172;BME280;63750;52.418;20.742;2023-08-06T07:03:45;98888.25;;;25.80;62.17
75172;BME280;63750;52.418;20.742;2023-08-06T07:06:34;98886.61;;;25.74;61.82
75172;BME280;63750;52.418;20.742;2023-08-06T07:09:23;98881.23;;;25.74;62.11
75172;BME280;63750;52.418;20.742;2023-08-06T07:12:12;98878.98;;;25.72;62.11
75172;BME280;63750;52.418;20.742;2023-08-06T07:15:01;98876.86;;;25.70;62.02
75172;BME280;63750;52.418;20.742;2023-08-06T07:17:49;98875.89;;;25.74;62.07
75172;BME280;63750;52.418;20.742;2023-08-06T07:20:38;98875.89;;;25.87;61.89
75172;BME280;63750;52.418;20.742;2023-08-06T07:23:27;98878.00;;;26.04;61.23
75172;BME280;63750;52.418;20.742;2023-08-06T07:26:16;98879.23;;;26.15;61.01
75172;BME280;63750;52.418;20.742;2023-08-06T07:29:05;98880.54;;;26.26;60.61
75172;BME280;63750;52.418;20.742;2023-08-06T07:31:54;98879.13;;;26.36;60.44
75172;BME280;63750;52.418;20.742;2023-08-06T07:34:43;98879.31;;;26.46;60.16
75172;BME280;63750;52.418;20.742;2023-08-06T07:37:31;98874.19;;;26.44;59.61
75172;BME280;63750;52.418;20.742;2023-08-06T07:40:20;98871.19;;;26.49;60.41
75172;BME280;63750;52.418;20.742;2023-08-06T07:43:09;98870.69;;;26.51;59.60
75172;BME280;63750;52.418;20.742;2023-08-06T07:46:00;98867.39;;;26.43;59.72
75172;BME280;63750;52.418;20.742;2023-08-06T07:48:49;98868.91;;;26.42;59.25
75172;BME280;63750;52.418;20.742;2023-08-06T07:51:38;98869.23;;;26.45;59.24
75172;BME280;63750;52.418;20.742;2023-08-06T07:54:27;98870.69;;;26.53;59.40
75172;BME280;63750;52.418;20.742;2023-08-06T07:57:16;98864.98;;;26.61;59.22
75172;BME280;63750;52.418;20.742;2023-08-06T08:00:06;98869.84;;;26.73;59.52
75172;BME280;63750;52.418;20.742;2023-08-06T08:02:55;98867.75;;;26.78;58.55
75172;BME280;63750;52.418;20.742;2023-08-06T08:05:44;98867.32;;;26.77;58.27
75172;BME280;63750;52.418;20.742;2023-08-06T08:08:33;98864.65;;;26.76;58.27
75172;BME280;63750;52.418;20.742;2023-08-06T08:11:22;98857.14;;;26.86;58.32
75172;BME280;63750;52.418;20.742;2023-08-06T08:14:11;98857.16;;;26.98;58.30
75172;BME280;63750;52.418;20.742;2023-08-06T08:17:00;98858.03;;;27.19;58.14
75172;BME280;63750;52.418;20.742;2023-08-06T08:19:49;98858.20;;;27.32;57.35
75172;BME280;63750;52.418;20.742;2023-08-06T08:22:38;98852.29;;;27.37;57.13
75172;BME280;63750;52.418;20.742;2023-08-06T08:25:27;98847.88;;;27.36;56.97
75172;BME280;63750;52.418;20.742;2023-08-06T08:28:16;98843.04;;;27.43;57.34
75172;BME280;63750;52.418;20.742;2023-08-06T08:31:04;98832.60;;;27.60;57.57
75172;BME280;63750;52.418;20.742;2023-08-06T08:33:56;98835.52;;;27.77;56.50
75172;BME280;63750;52.418;20.742;2023-08-06T08:36:45;98836.90;;;27.93;56.81
75172;BME280;63750;52.418;20.742;2023-08-06T08:39:34;98835.44;;;28.04;55.53
75172;BME280;63750;52.418;20.742;2023-08-06T08:42:22;98837.43;;;28.06;55.26
75172;BME280;63750;52.418;20.742;2023-08-06T08:45:14;98837.93;;;28.05;55.11
75172;BME280;63750;52.418;20.742;2023-08-06T08:48:03;98836.48;;;27.98;55.52
75172;BME280;63750;52.418;20.742;2023-08-06T08:50:52;98828.41;;;27.96;55.13
75172;BME280;63750;52.418;20.742;2023-08-06T08:53:41;98819.30;;;28.11;55.11
75172;BME280;63750;52.418;20.742;2023-08-06T08:56:32;98819.34;;;28.30;55.51
75172;BME280;63750;52.418;20.742;2023-08-06T08:59:21;98822.50;;;28.46;54.96
75172;BME280;63750;52.418;20.742;2023-08-06T09:02:12;98813.96;;;28.55;54.52
75172;BME280;63750;52.418;20.742;2023-08-06T09:05:02;98817.64;;;28.59;54.00
75172;BME280;63750;52.418;20.742;2023-08-06T09:07:52;98809.64;;;28.61;54.09
75172;BME280;63750;52.418;20.742;2023-08-06T09:10:42;98810.00;;;28.70;54.03
75172;BME280;63750;52.418;20.742;2023-08-06T09:13:31;98805.53;;;28.83;53.72
75172;BME280;63750;52.418;20.742;2023-08-06T09:16:20;98797.02;;;28.94;53.50
75172;BME280;63750;52.418;20.742;2023-08-06T09:19:10;98790.81;;;28.99;53.19
75172;BME280;63750;52.418;20.742;2023-08-06T09:22:06;98781.91;;;29.09;53.34
75172;BME280;63750;52.418;20.742;2023-08-06T09:24:57;98783.10;;;29.39;53.66
75172;BME280;63750;52.418;20.742;2023-08-06T09:27:47;98776.90;;;29.54;52.18
75172;BME280;63750;52.418;20.742;2023-08-06T09:30:37;98774.26;;;29.74;52.17
75172;BME280;63750;52.418;20.742;2023-08-06T09:33:26;98774.23;;;29.87;51.36
75172;BME280;63750;52.418;20.742;2023-08-06T09:36:17;98771.73;;;29.89;50.79
75172;BME280;63750;52.418;20.742;2023-08-06T09:39:14;98765.17;;;29.95;51.34
75172;BME280;63750;52.418;20.742;2023-08-06T09:42:03;98761.98;;;29.98;50.39
75172;BME280;63750;52.418;20.742;2023-08-06T09:44:52;98758.11;;;30.04;50.25
75172;BME280;63750;52.418;20.742;2023-08-06T09:47:47;98761.49;;;30.15;50.26
75172;BME280;63750;52.418;20.742;2023-08-06T09:50:37;98761.23;;;30.06;49.72
75172;BME280;63750;52.418;20.742;2023-08-06T09:53:26;98753.96;;;29.94;49.98
75172;BME280;63750;52.418;20.742;2023-08-06T09:56:16;98753.81;;;29.86;49.82
75172;BME280;63750;52.418;20.742;2023-08-06T09:59:06;98750.64;;;29.84;50.22
75172;BME280;63750;52.418;20.742;2023-08-06T10:01:56;98753.55;;;29.77;50.58
75172;BME280;63750;52.418;20.742;2023-08-06T10:04:47;98754.05;;;29.70;50.28
75172;BME280;63750;52.418;20.742;2023-08-06T10:07:36;98755.16;;;29.72;50.62
75172;BME280;63750;52.418;20.742;2023-08-06T10:10:26;98747.76;;;29.95;50.38
75172;BME280;63750;52.418;20.742;2023-08-06T10:13:18;98738.42;;;30.05;50.32
75172;BME280;63750;52.418;20.742;2023-08-06T10:16:07;98738.76;;;30.07;50.14
75172;BME280;63750;52.418;20.742;2023-08-06T10:18:56;98729.83;;;30.07;49.71
75172;BME280;63750;52.418;20.742;2023-08-06T10:22:09;98726.50;;;30.12;49.47
75172;BME280;63750;52.418;20.742;2023-08-06T10:24:59;98721.07;;;30.26;49.31
75172;BME280;63750;52.418;20.742;2023-08-06T10:27:55;98710.45;;;30.43;49.23
75172;BME280;63750;52.418;20.742;2023-08-06T10:30:45;98707.04;;;30.62;49.14
75172;BME280;63750;52.418;20.742;2023-08-06T10:33:52;98705.10;;;30.71;48.55
75172;BME280;63750;52.418;20.742;2023-08-06T10:36:40;98699.73;;;30.58;47.29
75172;BME280;63750;52.418;20.742;2023-08-06T10:39:29;98701.93;;;30.65;47.69
75172;BME280;63750;52.418;20.742;2023-08-06T10:42:23;98699.95;;;30.74;48.23
75172;BME280;63750;52.418;20.742;2023-08-06T10:45:17;98705.27;;;30.74;46.98
75172;BME280;63750;52.418;20.742;2023-08-06T10:48:06;98703.02;;;30.72;47.03
75172;BME280;63750;52.418;20.742;2023-08-06T10:50:55;98698.94;;;30.64;46.85
75172;BME280;63750;52.418;20.742;2023-08-06T10:53:45;98695.98;;;30.69;47.34
75172;BME280;63750;52.418;20.742;2023-08-06T10:56:41;98692.18;;;30.81;46.97
75172;BME280;63750;52.418;20.742;2023-08-06T10:59:29;98686.55;;;30.93;46.93
75172;BME280;63750;52.418;20.742;2023-08-06T11:02:18;98684.67;;;31.08;46.03
75172;BME280;63750;52.418;20.742;2023-08-06T11:05:08;98676.33;;;31.14;45.89
75172;BME280;63750;52.418;20.742;2023-08-06T11:07:57;98675.54;;;31.20;46.02
75172;BME280;63750;52.418;20.742;2023-08-06T11:10:46;98669.10;;;31.17;45.02
75172;BME280;63750;52.418;20.742;2023-08-06T11:13:35;98660.52;;;31.03;44.94
75172;BME280;63750;52.418;20.742;2023-08-06T11:16:25;98659.39;;;30.94;44.93
75172;BME280;63750;52.418;20.742;2023-08-06T11:19:13;98655.92;;;30.83;45.21
75172;BME280;63750;52.418;20.742;2023-08-06T11:22:02;98646.02;;;30.75;44.75
75172;BME280;63750;52.418;20.742;2023-08-06T11:24:52;98641.46;;;30.79;45.55
75172;BME280;63750;52.418;20.742;2023-08-06T11:27:41;98635.30;;;30.78;45.16
75172;BME280;63750;52.418;20.742;2023-08-06T11:30:30;98629.39;;;30.71;45.21
75172;BME280;63750;52.418;20.742;2023-08-06T11:33:22;98640.05;;;30.76;45.44
75172;BME280;63750;52.418;20.742;2023-08-06T11:36:11;98635.98;;;30.69;45.20
75172;BME280;63750;52.418;20.742;2023-08-06T11:39:01;98632.27;;;30.83;45.35
75172;BME280;63750;52.418;20.742;2023-08-06T11:41:50;98632.87;;;30.99;44.72
75172;BME280;63750;52.418;20.742;2023-08-06T11:44:40;98623.84;;;30.96;44.70
75172;BME280;63750;52.418;20.742;2023-08-06T11:47:29;98621.15;;;31.06;44.68
75172;BME280;63750;52.418;20.742;2023-08-06T11:50:24;98613.98;;;31.23;44.19
75172;BME280;63750;52.418;20.742;2023-08-06T11:53:15;98615.41;;;31.53;43.98
75172;BME280;63750;52.418;20.742;2023-08-06T11:56:04;98613.98;;;31.60;43.23
75172;BME280;63750;52.418;20.742;2023-08-06T11:58:53;98608.54;;;31.54;43.41
75172;BME280;63750;52.418;20.742;2023-08-06T12:01:42;98605.36;;;31.51;42.53
75172;BME280;63750;52.418;20.742;2023-08-06T12:04:31;98597.65;;;31.62;42.80
75172;BME280;63750;52.418;20.742;2023-08-06T12:07:20;98593.71;;;31.76;42.28
75172;BME280;63750;52.418;20.742;2023-08-06T12:10:15;98577.95;;;31.93;42.50
75172;BME280;63750;52.418;20.742;2023-08-06T12:13:04;98579.70;;;32.15;42.22
75172;BME280;63750;52.418;20.742;2023-08-06T12:15:55;98578.56;;;32.36;41.69
75172;BME280;63750;52.418;20.742;2023-08-06T12:18:43;98579.55;;;32.52;41.60
75172;BME280;63750;52.418;20.742;2023-08-06T12:21:32;98581.81;;;32.73;40.69
75172;BME280;63750;52.418;20.742;2023-08-06T12:24:21;98581.77;;;32.93;40.95
75172;BME280;63750;52.418;20.742;2023-08-06T12:27:10;98573.36;;;32.93;39.90
75172;BME280;63750;52.418;20.742;2023-08-06T12:29:59;98570.34;;;32.94;39.95
75172;BME280;63750;52.418;20.742;2023-08-06T12:32:48;98578.07;;;32.97;39.41
75172;BME280;63750;52.418;20.742;2023-08-06T12:35:37;98577.50;;;33.03;39.83
75172;BME280;63750;52.418;20.742;2023-08-06T12:38:25;98579.69;;;32.92;39.73
75172;BME280;63750;52.418;20.742;2023-08-06T12:41:14;98581.27;;;32.63;39.11
75172;BME280;63750;52.418;20.742;2023-08-06T12:44:03;98582.73;;;32.34;39.99
75172;BME280;63750;52.418;20.742;2023-08-06T12:46:53;98580.63;;;32.09;40.75
75172;BME280;63750;52.418;20.742;2023-08-06T12:49:41;98568.73;;;31.90;40.18
75172;BME280;63750;52.418;20.742;2023-08-06T12:52:30;98561.60;;;31.69;40.34
75172;BME280;63750;52.418;20.742;2023-08-06T12:55:19;98550.93;;;31.50;40.25
75172;BME280;63750;52.418;20.742;2023-08-06T12:58:08;98551.14;;;31.29;40.40
75172;BME280;63750;52.418;20.742;2023-08-06T13:00:57;98547.67;;;31.13;40.83
75172;BME280;63750;52.418;20.742;2023-08-06T13:03:45;98552.44;;;30.96;41.32
75172;BME280;63750;52.418;20.742;2023-08-06T13:06:34;98561.69;;;30.82;41.66
75172;BME280;63750;52.418;20.742;2023-08-06T13:09:23;98563.74;;;30.75;41.79
75172;BME280;63750;52.418;20.742;2023-08-06T13:12:12;98566.81;;;30.66;42.09
75172;BME280;63750;52.418;20.742;2023-08-06T13:15:00;98565.43;;;30.67;42.32
75172;BME280;63750;52.418;20.742;2023-08-06T13:17:49;98567.41;;;30.73;42.37
75172;BME280;63750;52.418;20.742;2023-08-06T13:20:39;98566.48;;;30.82;42.15
75172;BME280;63750;52.418;20.742;2023-08-06T13:23:28;98565.94;;;30.84;42.45
75172;BME280;63750;52.418;20.742;2023-08-06T13:26:17;98564.29;;;30.87;42.07
75172;BME280;63750;52.418;20.742;2023-08-06T13:29:06;98553.91;;;30.90;41.72
75172;BME280;63750;52.418;20.742;2023-08-06T13:31:54;98549.09;;;30.96;41.77
75172;BME280;63750;52.418;20.742;2023-08-06T13:34:43;98550.04;;;30.98;41.67
75172;BME280;63750;52.418;20.742;2023-08-06T13:37:32;98558.41;;;30.95;41.50
75172;BME280;63750;52.418;20.742;2023-08-06T13:40:21;98575.85;;;30.92;41.48
75172;BME280;63750;52.418;20.742;2023-08-06T13:43:10;98576.74;;;30.85;40.77
75172;BME280;63750;52.418;20.742;2023-08-06T13:45:59;98588.78;;;31.02;41.93
75172;BME280;63750;52.418;20.742;2023-08-06T13:48:48;98594.03;;;31.00;43.33
75172;BME280;63750;52.418;20.742;2023-08-06T13:51:37;98592.06;;;30.78;44.22
75172;BME280;63750;52.418;20.742;2023-08-06T13:54:26;98593.94;;;30.61;45.26
75172;BME280;63750;52.418;20.742;2023-08-06T13:57:15;98583.39;;;30.66;45.56
75172;BME280;63750;52.418;20.742;2023-08-06T14:00:05;98577.96;;;30.91;45.07
75172;BME280;63750;52.418;20.742;2023-08-06T14:02:54;98578.31;;;31.05;45.18
75172;BME280;63750;52.418;20.742;2023-08-06T14:05:43;98579.59;;;30.97;44.30
75172;BME280;63750;52.418;20.742;2023-08-06T14:08:32;98573.67;;;30.79;44.51
75172;BME280;63750;52.418;20.742;2023-08-06T14:11:20;98572.34;;;30.71;44.71
75172;BME280;63750;52.418;20.742;2023-08-06T14:14:09;98587.38;;;30.60;44.50
75172;BME280;63750;52.418;20.742;2023-08-06T14:16:58;98584.19;;;30.42;44.58
75172;BME280;63750;52.418;20.742;2023-08-06T14:19:47;98588.30;;;30.33;44.67
75172;BME280;63750;52.418;20.742;2023-08-06T14:22:35;98601.65;;;30.12;45.14
75172;BME280;63750;52.418;20.742;2023-08-06T14:25:24;98604.27;;;29.93;45.69
75172;BME280;63750;52.418;20.742;2023-08-06T14:28:13;98608.12;;;29.83;45.97
75172;BME280;63750;52.418;20.742;2023-08-06T14:31:02;98612.90;;;29.80;46.00
75172;BME280;63750;52.418;20.742;2023-08-06T14:33:51;98618.16;;;29.80;45.96
75172;BME280;63750;52.418;20.742;2023-08-06T14:36:40;98625.73;;;29.71;46.36
75172;BME280;63750;52.418;20.742;2023-08-06T14:39:28;98626.32;;;29.58;46.23
75172;BME280;63750;52.418;20.742;2023-08-06T14:42:17;98626.76;;;29.37;46.76
75172;BME280;63750;52.418;20.742;2023-08-06T14:45:08;98635.86;;;29.26;46.52